Time;durP1;ratioP1;P1;durP2;ratioP2;P2;SDS_P1;SDS_P2;PMS_P1;PMS_P2;Temp;Humidity;BMP_temperature;BMP_pressure;BME280_temperature;BME280_humidity;BME280_pressure;Samples;Min_cycle;Max_cycle;Signal;HPM_P1;HPM_P2
2023/11/17 00:00:35;;;;;;;;;5.00;3.00;;;;;11.79;87.10;101604.69;5005352;28;45284;-66
2023/11/17 00:03:00;;;;;;;;;4.50;3.75;;;;;11.64;87.68;101581.84;5000810;28;45417;-66
2023/11/17 00:05:25;;;;;;;;;3.75;3.75;;;;;11.79;87.40;101610.03;5005249;28;45352;-66
2023/11/17 00:07:52;;;;;;;;;4.50;3.00;;;;;11.77;87.24;101607.41;5004165;28;60372;-66
2023/11/17 00:10:17;;;;;;;;;6.25;6.00;;;;;11.80;87.58;101612.69;5004290;28;45382;-66
2023/11/17 00:12:42;;;;;;;;;3.50;3.50;;;;;11.80;87.65;101610.00;5004194;28;64985;-66
2023/11/17 00:15:11;;;;;;;;;3.25;3.25;;;;;11.82;87.18;101610.84;5004924;28;45348;-66
2023/11/17 00:17:38;;;;;;;;;3.25;3.25;;;;;11.82;87.32;101618.88;4998652;28;45434;-66
2023/11/17 00:20:04;;;;;;;;;4.00;4.00;;;;;11.84;87.32;101622.41;5004356;28;67923;-66
2023/11/17 00:22:29;;;;;;;;;2.50;2.00;;;;;11.86;87.71;101627.69;5004751;28;45919;-66
2023/11/17 00:24:54;;;;;;;;;3.50;3.50;;;;;11.86;87.23;101620.56;5004494;28;45290;-66
2023/11/17 00:27:19;;;;;;;;;4.50;3.00;;;;;11.86;86.98;101620.56;5004792;28;45260;-66
2023/11/17 00:29:48;;;;;;;;;4.00;4.00;;;;;11.88;87.27;101615.19;5004290;28;59975;-66
2023/11/17 00:32:13;;;;;;;;;5.00;3.00;;;;;11.85;87.31;101610.78;5004355;28;46151;-66
2023/11/17 00:34:39;;;;;;;;;3.00;3.00;;;;;11.84;87.38;101619.72;5004865;28;45486;-66
2023/11/17 00:37:07;;;;;;;;;3.00;3.00;;;;;11.87;87.21;101621.44;5002384;28;69202;-66
2023/11/17 00:39:33;;;;;;;;;1.25;1.25;;;;;11.85;87.11;101624.16;5004538;28;45516;-66
2023/11/17 00:41:59;;;;;;;;;2.00;2.00;;;;;11.84;86.49;101625.09;5001730;28;46209;-66
2023/11/17 00:44:24;;;;;;;;;0.50;0.50;;;;;11.83;86.71;101622.44;5001463;28;45308;-66
2023/11/17 00:46:49;;;;;;;;;2.75;2.50;;;;;11.89;86.80;101629.44;5000845;28;47171;-66
2023/11/17 00:49:15;;;;;;;;;2.00;1.50;;;;;11.85;86.88;101626.81;4995298;28;50633;-66
2023/11/17 00:51:40;;;;;;;;;1.00;1.00;;;;;11.88;86.99;101631.22;5001171;28;46930;-66
2023/11/17 00:54:06;;;;;;;;;4.00;3.00;;;;;11.89;86.75;101640.13;4999978;28;73368;-66
2023/11/17 00:56:33;;;;;;;;;2.00;2.00;;;;;11.88;86.85;101628.56;5001139;28;45402;-66
2023/11/17 00:59:03;;;;;;;;;2.50;2.50;;;;;11.88;86.53;101625.88;5001158;28;45482;-66
2023/11/17 01:01:28;;;;;;;;;3.25;3.25;;;;;11.87;86.35;101621.44;5000618;28;45372;-66
2023/11/17 01:03:54;;;;;;;;;3.25;3.25;;;;;11.86;86.57;101622.34;5001346;28;45328;-66
2023/11/17 01:06:19;;;;;;;;;2.00;2.00;;;;;11.89;86.78;101629.44;5000255;28;68408;-66
2023/11/17 01:08:45;;;;;;;;;1.75;1.75;;;;;11.87;86.51;101633.00;5000912;28;45369;-66
2023/11/17 01:11:12;;;;;;;;;1.00;1.00;;;;;11.81;86.32;101622.47;4988311;28;54574;-66
2023/11/17 01:13:38;;;;;;;;;2.00;1.25;;;;;11.80;86.56;101628.72;5001185;28;45436;-66
2023/11/17 01:16:03;;;;;;;;;1.00;0.00;;;;;11.80;86.36;101627.84;4991037;28;46441;-66
2023/11/17 01:18:29;;;;;;;;;1.00;1.00;;;;;11.78;86.23;101624.34;5001140;28;45399;-66
2023/11/17 01:20:54;;;;;;;;;0.50;0.50;;;;;11.79;86.39;101632.31;5000188;28;64306;-66
2023/11/17 01:23:19;;;;;;;;;2.00;2.00;;;;;11.78;86.49;101637.72;4999579;28;73274;-66
2023/11/17 01:25:45;;;;;;;;;2.00;2.00;;;;;11.78;86.22;101649.28;4992238;28;45472;-66
2023/11/17 01:28:10;;;;;;;;;6.50;2.00;;;;;11.75;86.65;101643.13;4990274;28;45631;-66
2023/11/17 01:30:36;;;;;;;;;2.00;0.50;;;;;11.73;86.30;101648.53;4999751;28;45445;-66
2023/11/17 01:33:02;;;;;;;;;2.00;2.00;;;;;11.70;86.40;101643.22;5000489;28;45349;-66
2023/11/17 01:35:29;;;;;;;;;0.75;0.75;;;;;11.70;86.32;101653.94;4999912;28;45530;-66
2023/11/17 01:37:55;;;;;;;;;1.00;1.00;;;;;11.68;86.89;101643.25;5000688;28;45607;-66
2023/11/17 01:40:22;;;;;;;;;1.75;1.75;;;;;11.71;86.67;101631.63;5000268;28;45468;-66
2023/11/17 01:42:47;;;;;;;;;1.00;0.00;;;;;11.71;86.70;101647.69;5000698;28;45795;-66
2023/11/17 01:45:14;;;;;;;;;1.00;1.00;;;;;11.67;86.46;101633.47;5000697;28;45314;-66
2023/11/17 01:47:42;;;;;;;;;0.25;0.25;;;;;11.71;86.41;101662.81;4989611;28;45439;-66
2023/11/17 01:50:11;;;;;;;;;1.00;1.00;;;;;11.64;86.45;101657.63;5000454;28;46470;-66
2023/11/17 01:52:43;;;;;;;;;1.50;1.50;;;;;11.70;86.45;101658.41;5000151;28;45709;-67
2023/11/17 01:55:09;;;;;;;;;1.50;1.50;;;;;11.63;86.53;101636.28;5000185;28;45399;-66
2023/11/17 01:57:37;;;;;;;;;2.00;1.00;;;;;11.61;86.74;101625.59;5000205;28;45501;-66
2023/11/17 02:00:06;;;;;;;;;0.75;0.75;;;;;11.60;86.60;101642.56;5000073;28;47103;-66
2023/11/17 02:02:33;;;;;;;;;2.00;1.00;;;;;11.59;86.83;101658.63;5000217;28;45257;-66
2023/11/17 02:04:58;;;;;;;;;1.00;1.00;;;;;11.62;86.76;101674.63;5000394;28;45340;-66
2023/11/17 02:07:36;;;;;;;;;1.00;1.00;;;;;11.63;86.95;101660.34;5000173;28;45234;-66
2023/11/17 02:10:22;;;;;;;;;1.75;1.75;;;;;11.66;86.67;101646.88;4998840;28;46313;-66
2023/11/17 02:13:02;;;;;;;;;2.00;1.00;;;;;11.60;86.99;101644.34;4999705;28;45452;-66
2023/11/17 02:15:33;;;;;;;;;1.00;1.00;;;;;11.65;87.00;101635.31;4995539;28;45468;-66
2023/11/17 02:18:04;;;;;;;;;0.00;0.00;;;;;11.67;87.07;101635.28;5000133;28;45421;-66
2023/11/17 02:20:34;;;;;;;;;0.25;0.25;;;;;11.67;87.13;101636.13;4999911;28;46222;-66
2023/11/17 02:23:07;;;;;;;;;1.00;1.00;;;;;11.67;87.02;101633.47;4999921;28;45670;-66
2023/11/17 02:26:15;;;;;;;;;0.00;0.00;;;;;11.70;86.72;101635.22;4995896;28;45393;-66
2023/11/17 02:29:06;;;;;;;;;1.00;1.00;;;;;11.71;86.80;101639.66;4998233;28;45237;-66
2023/11/17 02:31:33;;;;;;;;;1.00;1.00;;;;;11.72;86.78;101636.03;4992937;28;46183;-66
2023/11/17 02:34:03;;;;;;;;;1.00;1.00;;;;;11.74;86.55;101631.53;4999694;28;45654;-66
2023/11/17 02:36:32;;;;;;;;;1.00;1.00;;;;;11.70;86.60;101615.63;4998687;28;45400;-66
2023/11/17 02:39:13;;;;;;;;;0.50;0.00;;;;;11.66;86.63;101618.34;4999571;28;45493;-66
2023/11/17 02:41:47;;;;;;;;;0.00;0.00;;;;;11.77;86.75;101643.97;4999957;28;46353;-66
2023/11/17 02:44:15;;;;;;;;;1.25;1.00;;;;;11.74;86.83;101636.88;4999536;28;45344;-66
2023/11/17 02:46:44;;;;;;;;;1.00;1.00;;;;;11.75;86.84;101635.09;4999103;28;45470;-66
2023/11/17 02:49:22;;;;;;;;;1.00;0.50;;;;;11.74;86.74;101631.53;4999854;28;45359;-66
2023/11/17 02:51:51;;;;;;;;;1.00;1.00;;;;;11.73;86.77;101635.16;4999531;28;45387;-66
2023/11/17 02:54:19;;;;;;;;;1.00;1.00;;;;;11.70;86.77;101635.22;4999339;28;45677;-66
2023/11/17 02:56:46;;;;;;;;;1.50;1.50;;;;;11.71;86.44;101631.63;4998980;28;45396;-66
2023/11/17 02:59:13;;;;;;;;;0.00;0.00;;;;;11.75;86.52;101627.97;4999574;28;45507;-66
2023/11/17 03:01:39;;;;;;;;;1.00;1.00;;;;;11.75;86.78;101619.06;4999242;28;46174;-65
2023/11/17 03:04:13;;;;;;;;;0.00;0.00;;;;;11.74;86.47;101611.94;4999306;28;45576;-66
2023/11/17 03:06:39;;;;;;;;;0.00;0.00;;;;;11.71;86.29;101614.69;4996821;28;45445;-66
2023/11/17 03:09:06;;;;;;;;;2.75;1.00;;;;;11.72;86.25;101630.69;4999066;28;45364;-66
2023/11/17 03:11:31;;;;;;;;;1.00;0.50;;;;;11.70;86.67;101615.63;4998745;28;46355;-66
2023/11/17 03:13:56;;;;;;;;;1.00;0.00;;;;;11.69;86.47;101612.03;4993531;28;70414;-66
2023/11/17 03:16:24;;;;;;;;;1.00;1.00;;;;;11.67;86.67;101608.53;4997216;28;65595;-66
2023/11/17 03:18:52;;;;;;;;;0.75;0.75;;;;;11.68;86.46;101611.16;4999364;28;45539;-66
2023/11/17 03:21:19;;;;;;;;;3.00;1.00;;;;;11.69;86.55;101617.38;4999093;28;45413;-66
2023/11/17 03:23:44;;;;;;;;;1.00;1.00;;;;;11.67;86.11;101616.56;4998992;28;45503;-66
2023/11/17 03:26:11;;;;;;;;;0.50;0.50;;;;;11.65;86.65;101607.69;4998097;28;69573;-66
2023/11/17 03:28:37;;;;;;;;;1.75;1.75;;;;;11.67;86.78;101605.84;4998827;28;45722;-66
2023/11/17 03:31:03;;;;;;;;;0.75;0.50;;;;;11.72;86.24;101614.66;4986245;28;45406;-66
2023/11/17 03:33:32;;;;;;;;;0.00;0.00;;;;;11.70;86.26;101611.13;4998871;28;45383;-66
2023/11/17 03:35:57;;;;;;;;;1.50;1.00;;;;;11.73;86.32;101607.50;4997985;28;45423;-66
2023/11/17 03:38:22;;;;;;;;;1.00;1.00;;;;;11.72;86.32;101606.63;4997165;28;73040;-66
2023/11/17 03:40:48;;;;;;;;;2.00;0.00;;;;;11.71;86.59;101599.53;4997866;28;73536;-66
2023/11/17 03:43:13;;;;;;;;;2.00;0.00;;;;;11.70;86.47;101587.06;4997966;28;69083;-66
2023/11/17 03:45:44;;;;;;;;;1.00;1.00;;;;;11.70;86.73;101600.44;4998917;28;45465;-66
2023/11/17 03:48:09;;;;;;;;;1.00;1.00;;;;;11.69;86.56;101593.31;4998919;28;45395;-66
2023/11/17 03:50:35;;;;;;;;;1.00;1.00;;;;;11.70;86.62;101603.13;4998435;28;55669;-66
2023/11/17 03:53:00;;;;;;;;;1.00;1.00;;;;;11.68;86.41;101599.59;4998608;28;45500;-66
2023/11/17 03:55:27;;;;;;;;;1.00;1.00;;;;;11.65;86.70;101607.69;4997302;28;65707;-66
2023/11/17 03:57:52;;;;;;;;;1.25;1.00;;;;;11.68;86.53;101621.00;4998664;28;45413;-66
2023/11/17 04:00:18;;;;;;;;;1.00;1.00;;;;;11.67;86.64;101624.56;4998245;28;52720;-66
2023/11/17 04:02:43;;;;;;;;;0.50;0.50;;;;;11.67;86.49;101629.94;4994261;28;45455;-66
2023/11/17 04:05:13;;;;;;;;;1.00;1.00;;;;;11.66;86.38;101606.75;4997867;28;67794;-66
2023/11/17 04:07:38;;;;;;;;;1.00;1.00;;;;;11.62;86.40;101605.09;4997692;28;45716;-66
2023/11/17 04:10:04;;;;;;;;;0.75;0.75;;;;;11.65;86.57;101613.91;4996940;28;45525;-66
2023/11/17 04:12:29;;;;;;;;;2.00;1.25;;;;;11.64;86.66;101609.50;4998436;28;45753;-66
2023/11/17 04:14:54;;;;;;;;;1.00;1.00;;;;;11.58;86.60;101590.91;4997592;28;69461;-66
2023/11/17 04:17:20;;;;;;;;;1.75;1.00;;;;;11.61;86.72;101596.19;5000157;28;73258;-66
2023/11/17 04:19:45;;;;;;;;;2.00;1.00;;;;;11.63;86.94;101591.69;4994562;28;75577;-66
2023/11/17 04:22:12;;;;;;;;;5.00;2.00;;;;;11.61;86.86;101593.50;4984771;28;45458;-66
2023/11/17 04:24:38;;;;;;;;;0.50;0.50;;;;;11.59;86.31;101610.50;5001556;28;45268;-66
2023/11/17 04:27:03;;;;;;;;;3.00;1.00;;;;;11.52;86.83;101624.94;5001594;28;45375;-66
2023/11/17 04:29:29;;;;;;;;;0.00;0.00;;;;;11.50;87.02;101619.63;5001218;28;45343;-66
2023/11/17 04:31:55;;;;;;;;;3.00;1.00;;;;;11.42;86.94;101614.41;5001665;28;45269;-66
2023/11/17 04:34:21;;;;;;;;;2.00;1.00;;;;;11.50;87.35;101628.50;5001454;28;46121;-66
2023/11/17 04:36:47;;;;;;;;;1.00;1.00;;;;;11.49;87.23;101623.19;4996816;28;45417;-66
2023/11/17 04:39:17;;;;;;;;;3.50;2.50;;;;;11.51;87.13;101637.44;4999792;28;46013;-66
2023/11/17 04:41:48;;;;;;;;;1.00;1.00;;;;;11.50;87.34;101649.03;5000444;28;45464;-66
2023/11/17 04:44:13;;;;;;;;;3.75;3.00;;;;;11.49;87.08;101644.56;5001377;28;45651;-66
2023/11/17 04:46:38;;;;;;;;;2.00;2.00;;;;;11.43;87.37;101626.03;5001592;28;45454;-66
2023/11/17 04:49:04;;;;;;;;;2.75;2.00;;;;;11.46;87.51;101632.19;5000389;28;74202;-66
2023/11/17 04:51:29;;;;;;;;;1.00;1.00;;;;;11.45;87.26;101617.03;5001600;28;45331;-66
2023/11/17 04:53:55;;;;;;;;;1.00;1.00;;;;;11.45;87.33;101630.41;5001067;28;45363;-66
2023/11/17 04:56:20;;;;;;;;;2.00;2.00;;;;;11.42;87.35;101622.44;5001171;28;45550;-66
2023/11/17 04:58:45;;;;;;;;;3.75;2.00;;;;;11.42;87.13;101602.84;5000764;28;46225;-66
2023/11/17 05:01:14;;;;;;;;;1.75;1.50;;;;;11.41;87.09;101623.38;5001213;28;45486;-66
2023/11/17 05:03:40;;;;;;;;;1.00;1.00;;;;;11.35;87.26;101604.78;4988463;28;45320;-66
2023/11/17 05:06:06;;;;;;;;;3.00;2.00;;;;;11.38;87.48;101618.09;5006385;28;45660;-66
2023/11/17 05:08:33;;;;;;;;;1.25;0.50;;;;;11.38;87.63;101636.81;4999846;28;46240;-66
2023/11/17 05:10:59;;;;;;;;;2.00;2.00;;;;;11.36;87.68;101630.63;4999962;28;45436;-66
2023/11/17 05:13:25;;;;;;;;;2.75;2.00;;;;;11.41;87.78;101634.06;5001327;28;45332;-66
2023/11/17 05:15:50;;;;;;;;;2.00;2.00;;;;;11.42;87.26;101624.25;4996485;28;45799;-66
2023/11/17 05:18:15;;;;;;;;;2.00;2.00;;;;;11.39;87.35;101617.16;5001200;28;45741;-66
2023/11/17 05:20:42;;;;;;;;;5.25;2.25;;;;;11.39;87.48;101614.47;5004975;28;72484;-66
2023/11/17 05:23:11;;;;;;;;;3.00;2.00;;;;;11.37;87.91;101613.66;5000886;28;45430;-66
2023/11/17 05:25:40;;;;;;;;;1.00;1.00;;;;;11.37;87.63;101631.50;5000572;28;45504;-65
2023/11/17 05:28:05;;;;;;;;;2.00;1.75;;;;;11.35;87.79;101634.19;5000350;28;45998;-66
2023/11/17 05:30:32;;;;;;;;;1.75;1.75;;;;;11.38;87.74;101635.94;5000621;28;45374;-66
2023/11/17 05:32:59;;;;;;;;;2.00;2.00;;;;;11.35;87.42;101628.84;5000972;28;45317;-66
2023/11/17 05:35:24;;;;;;;;;1.25;1.25;;;;;11.39;87.71;101618.97;5000184;28;45557;-66
2023/11/17 05:37:50;;;;;;;;;2.75;2.75;;;;;11.35;87.71;101619.97;4995512;28;45370;-66
2023/11/17 05:40:15;;;;;;;;;2.50;2.00;;;;;11.34;87.72;101632.41;5000424;28;45296;-66
2023/11/17 05:42:40;;;;;;;;;3.00;1.00;;;;;11.35;87.77;101634.19;5001034;28;45564;-66
2023/11/17 05:45:06;;;;;;;;;4.00;4.00;;;;;11.34;87.75;101619.06;5000463;28;45611;-66
2023/11/17 05:47:32;;;;;;;;;4.00;3.00;;;;;11.37;88.15;101628.81;4996477;28;45490;-66
2023/11/17 05:49:58;;;;;;;;;3.75;3.00;;;;;11.36;88.04;101617.25;5000481;28;45407;-66
2023/11/17 05:52:23;;;;;;;;;5.00;5.00;;;;;11.37;87.90;101608.31;5000706;28;45704;-66
2023/11/17 05:54:49;;;;;;;;;4.75;3.00;;;;;11.36;87.93;101616.34;4993769;28;69883;-66
2023/11/17 05:57:19;;;;;;;;;4.00;3.50;;;;;11.38;88.03;101618.09;4999725;28;46991;-66
2023/11/17 05:59:47;;;;;;;;;4.00;2.50;;;;;11.36;88.25;101627.03;5000203;28;45408;-66
2023/11/17 06:02:14;;;;;;;;;5.00;4.00;;;;;11.40;87.94;101631.44;4995833;28;45391;-66
2023/11/17 06:04:40;;;;;;;;;5.75;4.75;;;;;11.41;88.23;101636.75;5000333;28;45351;-66
2023/11/17 06:07:07;;;;;;;;;5.00;4.00;;;;;11.43;88.04;101642.94;4994352;28;62630;-66
2023/11/17 06:09:32;;;;;;;;;3.00;3.00;;;;;11.44;88.15;101647.38;4994550;28;45717;-66
2023/11/17 06:11:57;;;;;;;;;2.00;2.00;;;;;11.46;87.95;101656.22;5000435;28;45232;-66
2023/11/17 06:14:30;;;;;;;;;1.25;1.00;;;;;11.43;88.12;101650.94;4998796;28;68850;-66
2023/11/17 06:16:56;;;;;;;;;2.00;2.00;;;;;11.48;87.96;101651.72;5000122;28;46954;-66
2023/11/17 06:19:22;;;;;;;;;2.00;1.00;;;;;11.48;87.76;101633.00;4999923;28;45277;-66
2023/11/17 06:21:48;;;;;;;;;2.00;2.00;;;;;11.54;87.95;101647.16;5000297;28;45504;-66
2023/11/17 06:24:16;;;;;;;;;3.75;2.75;;;;;11.54;88.04;101641.81;4997747;28;45398;-66
2023/11/17 06:26:43;;;;;;;;;4.75;4.75;;;;;11.55;87.82;101643.59;4999802;28;45551;-66
2023/11/17 06:29:08;;;;;;;;;3.75;2.50;;;;;11.57;87.81;101642.63;5002739;28;45697;-65
2023/11/17 06:31:34;;;;;;;;;4.75;2.50;;;;;11.60;87.38;101639.88;4990319;28;45613;-68
2023/11/17 06:33:59;;;;;;;;;3.00;1.75;;;;;11.61;87.28;101640.75;4997848;28;45581;-69
2023/11/17 06:36:24;;;;;;;;;2.00;2.00;;;;;11.66;87.47;101645.09;4997070;28;70450;-69
2023/11/17 06:38:49;;;;;;;;;1.25;1.25;;;;;11.67;87.82;101643.28;4997903;28;47341;-69
2023/11/17 06:41:15;;;;;;;;;1.50;1.50;;;;;11.70;87.25;101645.03;4987115;28;67687;-69
2023/11/17 06:43:41;;;;;;;;;2.00;2.00;;;;;11.69;87.29;101654.84;4998468;28;45367;-70
2023/11/17 06:46:07;;;;;;;;;1.00;1.00;;;;;11.72;87.22;101659.25;4996580;28;46491;-68
2023/11/17 06:48:35;;;;;;;;;1.00;1.00;;;;;11.72;87.03;101659.25;4989826;28;45546;-69
2023/11/17 06:51:00;;;;;;;;;1.00;1.00;;;;;11.75;86.99;101667.22;5008520;28;45522;-69
2023/11/17 06:53:25;;;;;;;;;1.00;1.00;;;;;11.75;86.74;101654.69;4999178;28;45539;-69
2023/11/17 06:55:50;;;;;;;;;1.00;1.00;;;;;11.78;86.76;101653.78;4997797;28;66639;-69
2023/11/17 06:58:16;;;;;;;;;2.75;1.75;;;;;11.78;87.05;101662.66;4996829;28;47422;-69
2023/11/17 07:00:42;;;;;;;;;2.50;2.00;;;;;11.78;86.75;101654.63;4996637;28;45622;-69
2023/11/17 07:03:08;;;;;;;;;1.50;1.50;;;;;11.78;86.77;101651.97;4999490;28;45459;-69
2023/11/17 07:05:34;;;;;;;;;2.25;2.25;;;;;11.82;87.09;101669.69;4999428;28;46084;-69
2023/11/17 07:08:01;;;;;;;;;1.25;1.25;;;;;11.80;87.40;101666.19;4994541;28;45770;-69
2023/11/17 07:10:28;;;;;;;;;2.00;2.00;;;;;11.82;87.04;101668.81;4996360;28;45564;-69
2023/11/17 07:12:54;;;;;;;;;1.50;1.50;;;;;11.82;87.16;101663.47;4993675;28;45320;-69
2023/11/17 07:15:19;;;;;;;;;2.00;2.00;;;;;11.80;86.47;101674.19;4991081;28;45605;-69
2023/11/17 07:17:45;;;;;;;;;1.00;1.00;;;;;11.79;86.60;101682.25;4986159;28;45351;-66
2023/11/17 07:20:12;;;;;;;;;2.00;2.00;;;;;11.76;86.58;101674.28;4995142;28;45505;-66
2023/11/17 07:22:41;;;;;;;;;1.50;1.50;;;;;11.80;86.24;101687.56;4996657;28;45454;-64
2023/11/17 07:25:07;;;;;;;;;1.00;1.00;;;;;11.78;86.37;101692.09;4994991;28;46096;-65
2023/11/17 07:27:32;;;;;;;;;1.00;0.00;;;;;11.77;86.24;101698.34;4998832;28;45348;-67
2023/11/17 07:29:58;;;;;;;;;1.00;1.00;;;;;11.68;86.21;101690.53;5005133;28;69281;-65
2023/11/17 07:32:23;;;;;;;;;1.00;0.00;;;;;11.70;86.27;101687.84;4997384;28;71091;-65
2023/11/17 07:34:49;;;;;;;;;1.00;1.00;;;;;11.75;86.42;101701.97;4998673;28;45967;-65
2023/11/17 07:37:15;;;;;;;;;1.00;1.00;;;;;11.74;86.47;101694.84;4998869;28;45387;-65
2023/11/17 07:39:40;;;;;;;;;3.50;1.50;;;;;11.72;86.46;101697.56;4998313;28;45545;-65
2023/11/17 07:42:06;;;;;;;;;4.75;2.00;;;;;11.76;86.35;101693.03;4997921;28;72028;-65
2023/11/17 07:44:31;;;;;;;;;1.00;0.00;;;;;11.68;86.28;101690.53;4997763;28;45632;-65
2023/11/17 07:47:01;;;;;;;;;3.00;1.00;;;;;11.71;86.33;101697.59;4997018;28;45375;-65
2023/11/17 07:49:26;;;;;;;;;1.75;1.75;;;;;11.70;85.95;101694.06;4988122;28;45713;-65
2023/11/17 07:51:53;;;;;;;;;4.25;1.75;;;;;11.71;86.12;101694.91;4996833;28;68673;-63
2023/11/17 07:54:19;;;;;;;;;1.00;1.00;;;;;11.70;86.04;101695.84;4999690;28;46064;-63
2023/11/17 07:56:46;;;;;;;;;1.00;1.00;;;;;11.72;86.52;101710.06;5000865;28;45996;-64
2023/11/17 07:59:12;;;;;;;;;1.00;1.00;;;;;11.73;86.05;101710.03;5001531;28;45380;-64
2023/11/17 08:01:37;;;;;;;;;1.50;1.50;;;;;11.73;85.63;101715.38;4996037;28;45658;-64
2023/11/17 08:04:03;;;;;;;;;1.50;1.00;;;;;11.80;85.84;101729.50;5009074;28;46400;-64
2023/11/17 08:06:29;;;;;;;;;1.00;1.00;;;;;11.77;86.04;101725.09;4998197;28;45651;-64
2023/11/17 08:08:55;;;;;;;;;1.25;1.25;;;;;11.80;85.49;101735.72;4984059;28;45396;-64
2023/11/17 08:11:22;;;;;;;;;2.25;1.75;;;;;11.82;85.66;101735.69;4998499;28;45408;-64
2023/11/17 08:13:47;;;;;;;;;3.25;2.50;;;;;11.81;85.93;101741.94;4992947;28;46500;-64
2023/11/17 08:16:13;;;;;;;;;2.50;1.00;;;;;11.79;85.99;101747.34;4995161;28;45306;-64
2023/11/17 08:18:38;;;;;;;;;1.00;1.00;;;;;11.77;86.30;101748.28;5012536;28;45868;-64
2023/11/17 08:21:05;;;;;;;;;1.00;1.00;;;;;11.79;86.12;101735.75;5000639;28;68866;-64
2023/11/17 08:23:30;;;;;;;;;0.00;0.00;;;;;11.87;85.94;101749.84;5000478;28;46976;-64
2023/11/17 08:25:56;;;;;;;;;2.00;2.00;;;;;11.87;86.07;101765.91;4988342;28;45440;-65
2023/11/17 08:28:22;;;;;;;;;1.00;1.00;;;;;11.87;86.24;101771.25;5000579;28;45486;-65
2023/11/17 08:30:48;;;;;;;;;1.50;1.50;;;;;11.90;86.37;101775.69;5001176;28;45402;-64
2023/11/17 08:33:13;;;;;;;;;1.00;1.00;;;;;11.88;86.24;101765.00;4999719;28;47023;-65
2023/11/17 08:35:38;;;;;;;;;2.00;1.00;;;;;11.92;86.19;101773.88;5000003;28;45577;-64
2023/11/17 08:38:06;;;;;;;;;2.00;1.75;;;;;11.93;86.33;101762.25;4998694;28;45797;-64
2023/11/17 08:40:31;;;;;;;;;3.00;3.00;;;;;11.94;85.88;101769.38;4984595;28;45390;-64
2023/11/17 08:42:56;;;;;;;;;3.75;2.00;;;;;11.93;86.63;101763.13;5002626;28;46129;-64
2023/11/17 08:45:22;;;;;;;;;2.25;2.25;;;;;11.93;86.81;101764.91;4996080;28;58104;-63
2023/11/17 08:47:50;;;;;;;;;1.75;1.75;;;;;11.91;87.00;101766.72;4995986;28;45372;-64
2023/11/17 08:50:16;;;;;;;;;2.50;2.50;;;;;11.93;87.12;101765.81;4997245;28;45543;-63
2023/11/17 08:52:43;;;;;;;;;2.00;2.00;;;;;11.94;87.34;101767.56;5000290;28;45423;-63
2023/11/17 08:55:10;;;;;;;;;2.75;2.75;;;;;11.95;87.28;101761.31;4990281;28;45407;-64
2023/11/17 08:57:36;;;;;;;;;3.00;1.00;;;;;11.97;87.50;101755.91;4993094;28;45581;-63
2023/11/17 09:00:18;;;;;;;;;1.00;1.00;;;;;11.98;87.68;101760.38;4998580;28;45337;-64
2023/11/17 09:02:45;;;;;;;;;1.00;1.00;;;;;12.01;87.58;101752.25;4987973;28;45501;-64
2023/11/17 09:05:12;;;;;;;;;3.00;2.00;;;;;11.97;87.37;101748.75;5001097;28;45354;-64
2023/11/17 09:07:47;;;;;;;;;3.00;1.75;;;;;11.96;87.51;101741.69;5000789;28;45276;-64
2023/11/17 09:10:14;;;;;;;;;2.00;2.00;;;;;11.92;87.27;101747.13;4986521;28;45548;-64
2023/11/17 09:12:42;;;;;;;;;2.00;2.00;;;;;11.93;87.48;101754.22;4996072;28;47060;-65
2023/11/17 09:15:18;;;;;;;;;2.00;2.00;;;;;11.92;87.69;101755.16;4991280;28;45430;-65
2023/11/17 09:17:47;;;;;;;;;2.00;2.00;;;;;11.91;88.04;101762.31;4997777;28;45652;-65
2023/11/17 09:20:13;;;;;;;;;2.50;2.50;;;;;11.91;87.83;101753.34;4986693;28;45250;-65
2023/11/17 09:22:40;;;;;;;;;1.50;1.00;;;;;11.95;87.68;101760.44;4994914;28;46160;-65
2023/11/17 09:25:13;;;;;;;;;4.75;3.00;;;;;11.99;88.12;101770.13;4989781;28;45667;-64
2023/11/17 09:27:59;;;;;;;;;2.00;1.00;;;;;12.02;88.10;101770.09;4999426;28;45261;-65
2023/11/17 09:30:28;;;;;;;;;2.00;2.00;;;;;12.05;87.58;101770.00;4999512;28;45297;-65
2023/11/17 09:32:55;;;;;;;;;2.75;1.00;;;;;12.04;87.73;101763.78;5000425;28;45583;-65
2023/11/17 09:35:21;;;;;;;;;3.25;3.00;;;;;12.03;88.00;101762.03;4990464;28;45643;-65
2023/11/17 09:37:58;;;;;;;;;1.75;1.25;;;;;12.03;87.72;101759.34;4996013;28;45342;-64
2023/11/17 09:40:25;;;;;;;;;3.00;2.25;;;;;12.05;87.92;101767.34;4996493;28;45305;-65
2023/11/17 09:42:55;;;;;;;;;2.50;2.00;;;;;12.07;88.17;101769.97;4992711;28;45639;-65
2023/11/17 09:45:25;;;;;;;;;1.75;1.75;;;;;12.09;87.76;101774.38;4987758;28;46041;-65
2023/11/17 09:47:57;;;;;;;;;3.00;1.50;;;;;12.02;87.31;101765.59;4989945;28;45438;-65
2023/11/17 09:50:26;;;;;;;;;2.75;1.75;;;;;12.12;87.38;101773.44;4992759;28;45344;-64
2023/11/17 09:52:52;;;;;;;;;2.00;2.00;;;;;12.14;87.51;101780.50;4985851;28;47035;-65
2023/11/17 09:55:22;;;;;;;;;0.25;0.25;;;;;12.17;86.92;101790.28;4997673;28;46289;-65
2023/11/17 09:57:55;;;;;;;;;1.00;1.00;;;;;12.19;86.34;101783.94;5000095;28;45589;-64
2023/11/17 10:00:22;;;;;;;;;0.50;0.50;;;;;12.22;87.20;101794.59;4994865;28;45605;-65
2023/11/17 10:02:54;;;;;;;;;1.50;0.75;;;;;12.22;87.24;101796.41;4989752;28;47015;-65
2023/11/17 10:05:24;;;;;;;;;0.00;0.00;;;;;12.25;86.84;101806.19;4985620;28;46019;-67
2023/11/17 10:08:00;;;;;;;;;2.00;2.00;;;;;12.26;87.07;101797.22;4998468;28;45554;-65
2023/11/17 10:10:26;;;;;;;;;1.50;1.50;;;;;12.30;86.72;101801.59;5007833;28;46132;-65
2023/11/17 10:12:56;;;;;;;;;2.00;2.00;;;;;12.34;87.33;101798.78;4992097;28;46194;-65
2023/11/17 10:15:25;;;;;;;;;2.00;2.00;;;;;12.28;87.06;101790.91;4986289;28;45480;-65
2023/11/17 10:18:01;;;;;;;;;1.00;1.00;;;;;12.40;86.65;101804.00;4996879;28;46139;-65
2023/11/17 10:20:27;;;;;;;;;4.00;1.00;;;;;12.42;86.76;101810.22;4998672;28;45359;-66
2023/11/17 10:22:54;;;;;;;;;2.00;1.25;;;;;12.45;86.86;101797.69;4995438;28;46142;-65
2023/11/17 10:25:21;;;;;;;;;1.75;1.25;;;;;12.47;87.05;101803.88;4992993;28;45402;-65
2023/11/17 10:27:51;;;;;;;;;1.50;1.25;;;;;12.47;86.08;101810.09;4984692;28;45330;-65
2023/11/17 10:30:19;;;;;;;;;2.50;0.50;;;;;12.46;85.87;101802.09;4988647;28;46000;-65
2023/11/17 10:32:58;;;;;;;;;1.00;1.00;;;;;12.48;85.79;101805.63;4995061;28;45607;-65
2023/11/17 10:35:26;;;;;;;;;1.75;1.75;;;;;12.52;86.34;101808.19;4991119;28;45500;-66
2023/11/17 10:37:56;;;;;;;;;1.00;1.00;;;;;12.52;86.18;101802.84;4996703;28;46770;-66
2023/11/17 10:40:23;;;;;;;;;3.00;3.00;;;;;12.56;86.03;101807.22;4998032;28;45435;-64
2023/11/17 10:43:04;;;;;;;;;4.00;4.00;;;;;12.58;86.02;101791.13;4997407;28;45765;-64
2023/11/17 10:45:33;;;;;;;;;2.50;1.50;;;;;12.62;85.84;101800.84;4995598;28;45671;-65
2023/11/17 10:47:59;;;;;;;;;1.00;1.00;;;;;12.68;85.39;101807.81;4989462;28;45320;-64
2023/11/17 10:50:28;;;;;;;;;2.00;2.00;;;;;12.70;85.71;101800.66;4998372;28;45506;-64
2023/11/17 10:52:54;;;;;;;;;1.00;1.00;;;;;12.72;85.50;101793.47;4993528;28;45532;-65
2023/11/17 10:55:34;;;;;;;;;2.75;1.75;;;;;12.75;85.27;101798.75;4995598;28;45347;-64
2023/11/17 10:58:04;;;;;;;;;1.25;1.25;;;;;12.76;84.82;101796.03;4995088;28;45513;-66
2023/11/17 11:00:33;;;;;;;;;2.25;1.00;;;;;12.76;84.67;101793.34;5001688;28;45637;-64
2023/11/17 11:03:01;;;;;;;;;2.00;1.50;;;;;12.83;84.06;101810.16;4995956;28;46174;-64
2023/11/17 11:05:27;;;;;;;;;2.00;2.00;;;;;12.85;84.38;101807.44;4997972;28;46082;-64
2023/11/17 11:07:52;;;;;;;;;2.00;2.00;;;;;12.86;83.97;101812.72;4988260;28;45517;-64
2023/11/17 11:10:18;;;;;;;;;1.00;1.00;;;;;12.90;84.17;101816.25;4983594;28;46422;-65
2023/11/17 11:12:46;;;;;;;;;0.75;0.50;;;;;12.92;83.78;101812.59;4997203;28;51807;-64
2023/11/17 11:15:14;;;;;;;;;1.00;1.00;;;;;12.94;84.29;101821.47;4993308;28;45437;-64
2023/11/17 11:17:58;;;;;;;;;1.00;1.00;;;;;12.97;84.14;101816.03;4998212;28;45367;-64
2023/11/17 11:20:25;;;;;;;;;1.00;1.00;;;;;12.93;84.28;101808.09;4987647;28;45257;-64
2023/11/17 11:22:52;;;;;;;;;1.25;0.00;;;;;13.01;83.46;101821.31;4998381;28;46321;-64
2023/11/17 11:25:19;;;;;;;;;0.75;0.75;;;;;13.02;83.45;101823.09;4998360;28;45381;-64